Time;durP1;ratioP1;P1;durP2;ratioP2;P2;SDS_P1;SDS_P2;PMS_P1;PMS_P2;Temp;Humidity;BMP_temperature;BMP_pressure;BME280_temperature;BME280_humidity;BME280_pressure;Samples;Min_cycle;Max_cycle;Signal;HPM_P1;HPM_P2
2022/11/19 00:04:50;;;;;;;26.83;12.93;;;;;;;5.90;100.00;100596.28;5075221;28;20040;-88
2022/11/19 00:33:12;;;;;;;28.17;14.27;;;;;;;5.38;100.00;100615.13;5074692;28;20051;-88
2022/11/19 01:03:15;;;;;;;32.15;13.23;;;;;;;5.00;100.00;100627.84;5074535;28;20120;-88
2022/11/19 01:16:27;;;;;;;27.48;13.80;;;;;;;4.90;100.00;100637.00;5073719;28;20039;-88
2022/11/19 01:19:27;;;;;;;32.25;14.07;;;;;;;4.82;100.00;100641.63;5073191;28;20097;-88
2022/11/19 01:21:54;;;;;;;26.52;12.55;;;;;;;4.76;100.00;100645.88;5073055;28;20376;-88
2022/11/19 01:24:20;;;;;;;27.88;14.35;;;;;;;4.74;100.00;100645.22;5073390;28;20043;-88
2022/11/19 01:38:14;;;;;;;32.35;15.15;;;;;;;4.65;100.00;100678.56;5093784;28;20067;-87
2022/11/19 02:22:10;;;;;;;25.45;13.93;;;;;;;4.36;100.00;100699.75;5035349;28;20041;-87
2022/11/19 02:24:42;;;;;;;27.75;13.70;;;;;;;4.30;100.00;100702.34;5035259;28;20083;-87
2022/11/19 02:27:38;;;;;;;27.00;13.55;;;;;;;4.24;100.00;100693.13;5018255;28;20041;-87
2022/11/19 02:43:40;;;;;;;21.00;11.70;;;;;;;4.13;100.00;100701.59;4956604;29;20058;-86
2022/11/19 02:46:12;;;;;;;20.58;11.18;;;;;;;4.06;100.00;100703.28;4923542;29;20117;-86
2022/11/19 02:48:48;;;;;;;20.83;10.68;;;;;;;4.01;100.00;100703.81;4977623;28;20049;-86
2022/11/19 02:51:15;;;;;;;18.60;10.75;;;;;;;3.95;100.00;100712.59;5000224;28;20121;-86
2022/11/19 02:53:40;;;;;;;17.70;10.27;;;;;;;3.87;100.00;100702.72;5038200;28;20045;-86
2022/11/19 02:56:16;;;;;;;19.42;10.32;;;;;;;3.79;100.00;100719.69;5037826;28;20374;-86
2022/11/19 03:04:31;;;;;;;19.17;10.10;;;;;;;3.69;100.00;100733.31;5056024;28;20119;-86
2022/11/19 03:07:16;;;;;;;17.13;9.57;;;;;;;3.71;100.00;100722.41;5039486;28;20106;-86
2022/11/19 03:09:53;;;;;;;18.10;9.80;;;;;;;3.70;100.00;100726.09;5038206;28;20037;-86
2022/11/19 03:12:29;;;;;;;18.15;9.48;;;;;;;3.69;100.00;100727.97;5038070;28;20491;-86
2022/11/19 03:18:06;;;;;;;16.30;8.60;;;;;;;3.68;100.00;100730.81;5056355;28;20443;-86
2022/11/19 03:20:41;;;;;;;15.23;9.15;;;;;;;3.64;100.00;100733.00;5054279;28;20040;-86
2022/11/19 03:23:25;;;;;;;17.98;9.77;;;;;;;3.62;100.00;100726.97;5037226;28;20559;-86
2022/11/19 03:26:05;;;;;;;13.40;8.80;;;;;;;3.59;100.00;100740.75;5037807;28;20474;-86
2022/11/19 03:28:37;;;;;;;17.65;9.55;;;;;;;3.59;100.00;100735.38;5037646;28;20043;-86
2022/11/19 03:31:05;;;;;;;15.65;9.27;;;;;;;3.53;100.00;100744.13;5038316;28;20406;-86
2022/11/19 03:33:37;;;;;;;16.58;10.20;;;;;;;3.48;100.00;100750.00;5055102;28;20048;-86
2022/11/19 03:36:38;;;;;;;16.58;9.82;;;;;;;3.44;100.00;100747.81;5055374;28;20043;-86
2022/11/19 03:39:11;;;;;;;19.42;10.02;;;;;;;3.43;100.00;100738.94;5046363;28;20055;-85
2022/11/19 03:41:39;;;;;;;19.98;10.82;;;;;;;3.43;100.00;100743.47;5095287;28;20469;-85
2022/11/19 03:44:23;;;;;;;17.10;9.93;;;;;;;3.45;100.00;100738.75;5095522;28;20122;-86
2022/11/19 03:46:54;;;;;;;18.73;10.60;;;;;;;3.44;100.00;100745.13;5077123;28;20035;-86
2022/11/19 03:49:29;;;;;;;20.45;10.48;;;;;;;3.45;100.00;100744.94;5077490;28;20032;-86
2022/11/19 03:52:00;;;;;;;20.35;10.00;;;;;;;3.46;100.00;100752.00;5077458;28;20032;-85
2022/11/19 03:54:26;;;;;;;18.38;10.68;;;;;;;3.45;100.00;100760.22;5094961;28;20036;-86
2022/11/19 03:56:53;;;;;;;21.15;11.48;;;;;;;3.43;100.00;100754.19;5076743;28;20036;-86
2022/11/19 03:59:22;;;;;;;22.85;11.05;;;;;;;3.44;100.00;100755.84;5076609;28;20111;-86
2022/11/19 04:01:54;;;;;;;20.63;11.13;;;;;;;3.42;100.00;100747.97;5077194;28;20170;-86
2022/11/19 04:04:37;;;;;;;20.23;11.43;;;;;;;3.42;100.00;100758.69;5076437;28;20127;-86
2022/11/19 04:07:08;;;;;;;21.27;11.63;;;;;;;3.41;100.00;100759.72;5076558;28;20040;-86
2022/11/19 04:09:34;;;;;;;20.30;11.43;;;;;;;3.42;100.00;100761.38;5077274;28;20046;-86
2022/11/19 04:12:03;;;;;;;24.42;11.48;;;;;;;3.37;100.00;100758.41;5076604;28;20039;-85
2022/11/19 04:14:28;;;;;;;19.90;10.90;;;;;;;3.33;100.00;100765.09;5076676;28;20043;-86
2022/11/19 04:16:54;;;;;;;22.33;11.83;;;;;;;3.30;100.00;100766.25;5076874;28;20035;-86
2022/11/19 04:19:20;;;;;;;22.52;12.05;;;;;;;3.27;100.00;100771.16;5094846;28;20044;-86
2022/11/19 04:21:46;;;;;;;25.33;12.30;;;;;;;3.28;100.00;100770.16;5077135;28;20149;-85
2022/11/19 04:24:14;;;;;;;20.43;11.57;;;;;;;3.25;100.00;100773.13;5076297;28;20040;-86
2022/11/19 04:26:41;;;;;;;23.48;12.07;;;;;;;3.22;100.00;100784.22;5094642;28;20032;-85
2022/11/19 04:29:09;;;;;;;24.45;12.27;;;;;;;3.19;100.00;100789.91;5076309;28;20047;-85
2022/11/19 04:31:35;;;;;;;25.98;12.10;;;;;;;3.18;100.00;100791.75;5076521;28;20074;-86
2022/11/19 04:34:00;;;;;;;26.27;13.53;;;;;;;3.16;100.00;100791.09;5076817;28;20440;-86
2022/11/19 04:36:28;;;;;;;27.37;14.20;;;;;;;3.14;100.00;100798.47;5076497;28;20059;-85
2022/11/19 04:38:56;;;;;;;25.45;13.45;;;;;;;3.11;100.00;100805.00;5090151;28;20048;-86
2022/11/19 04:41:24;;;;;;;28.30;14.48;;;;;;;3.06;100.00;100799.31;5072698;28;20043;-85
2022/11/19 04:43:52;;;;;;;27.52;14.07;;;;;;;3.05;100.00;100796.78;5057048;28;20102;-86
2022/11/19 04:46:18;;;;;;;29.38;14.63;;;;;;;3.03;100.00;100796.97;5072708;28;20040;-85
2022/11/19 04:48:49;;;;;;;26.88;14.00;;;;;;;3.06;100.00;100801.16;5073732;28;20090;-85
2022/11/19 04:51:14;;;;;;;26.90;13.65;;;;;;;3.04;100.00;100795.97;5072620;28;20068;-86
2022/11/19 04:53:39;;;;;;;26.30;13.82;;;;;;;3.08;100.00;100801.81;5073683;28;20063;-85
2022/11/19 04:56:08;;;;;;;27.80;14.80;;;;;;;3.06;100.00;100799.31;5055876;28;20037;-85
2022/11/19 04:58:36;;;;;;;26.15;14.35;;;;;;;3.03;100.00;100798.78;5072576;28;20041;-85
2022/11/19 05:01:02;;;;;;;24.98;12.80;;;;;;;2.99;100.00;100806.34;5073657;28;20043;-86
2022/11/19 05:03:32;;;;;;;29.27;13.68;;;;;;;2.99;100.00;100814.38;5073886;28;20047;-86
2022/11/19 05:05:58;;;;;;;25.77;13.63;;;;;;;2.96;100.00;100817.41;5072271;28;20083;-86
2022/11/19 05:08:23;;;;;;;26.67;14.20;;;;;;;2.93;100.00;100805.16;5056088;28;20521;-86
2022/11/19 05:10:54;;;;;;;26.48;14.38;;;;;;;2.92;100.00;100814.22;5072443;28;20051;-85
2022/11/19 05:13:20;;;;;;;27.23;14.10;;;;;;;2.87;100.00;100816.53;5073595;28;20036;-86
2022/11/19 05:15:48;;;;;;;27.77;14.75;;;;;;;2.85;100.00;100826.59;5072429;28;20420;-86
2022/11/19 05:18:13;;;;;;;29.52;14.48;;;;;;;2.83;100.00;100833.13;5072065;28;20071;-86
2022/11/19 05:20:39;;;;;;;27.30;14.38;;;;;;;2.81;100.00;100831.44;5055818;28;20127;-85
2022/11/19 05:23:07;;;;;;;28.20;14.20;;;;;;;2.85;100.00;100826.59;5072717;28;20120;-86
2022/11/19 05:25:33;;;;;;;28.27;14.40;;;;;;;2.86;100.00;100835.47;5072912;28;20485;-86
2022/11/19 05:27:58;;;;;;;30.63;14.93;;;;;;;2.89;100.00;100835.13;5073257;28;20040;-85
2022/11/19 05:30:24;;;;;;;27.07;13.83;;;;;;;2.92;100.00;100832.13;5055827;28;20041;-85
2022/11/19 05:32:49;;;;;;;27.95;14.70;;;;;;;2.94;100.00;100832.81;5072514;28;20040;-85
2022/11/19 05:35:14;;;;;;;27.90;14.27;;;;;;;2.96;100.00;100838.84;5055517;28;20480;-85
2022/11/19 05:37:40;;;;;;;30.37;15.87;;;;;;;2.97;100.00;100844.03;5072033;28;20093;-85
2022/11/19 05:40:17;;;;;;;28.97;14.80;;;;;;;2.95;100.00;100846.06;5037900;28;20408;-85
2022/11/19 05:42:42;;;;;;;27.15;14.90;;;;;;;2.96;100.00;100845.03;5057363;28;20036;-86
2022/11/19 05:45:09;;;;;;;28.80;15.50;;;;;;;2.94;100.00;100848.91;5072761;28;20037;-85
2022/11/19 05:47:35;;;;;;;28.13;15.00;;;;;;;2.89;100.00;100848.53;5055051;28;20078;-86
2022/11/19 05:50:00;;;;;;;31.00;15.27;;;;;;;2.85;100.00;100844.50;5072128;28;20091;-85
2022/11/19 05:52:29;;;;;;;27.47;14.80;;;;;;;2.83;100.00;100849.19;5071963;28;20052;-85
2022/11/19 05:54:57;;;;;;;27.52;15.32;;;;;;;2.79;100.00;100848.69;5055523;28;20507;-86
2022/11/19 05:57:23;;;;;;;29.02;15.43;;;;;;;2.78;100.00;100858.56;5071828;28;20119;-86
2022/11/19 05:59:48;;;;;;;28.80;16.00;;;;;;;2.83;100.00;100863.44;5073602;28;20083;-86
2022/11/19 06:02:14;;;;;;;31.25;17.05;;;;;;;2.79;100.00;100862.06;5072555;28;20040;-86
2022/11/19 06:04:39;;;;;;;28.85;15.73;;;;;;;2.76;100.00;100865.94;5054922;28;20123;-86
2022/11/19 06:07:05;;;;;;;27.53;15.73;;;;;;;2.78;100.00;100871.13;5055431;28;20044;-86
2022/11/19 06:09:31;;;;;;;28.40;15.82;;;;;;;2.73;100.00;100868.94;5055796;28;20040;-86
2022/11/19 06:11:57;;;;;;;29.07;15.17;;;;;;;2.74;100.00;100865.25;5055105;28;20055;-86
2022/11/19 06:14:24;;;;;;;29.70;15.52;;;;;;;2.75;100.00;100866.09;5072092;28;20481;-85
2022/11/19 06:16:52;;;;;;;31.38;15.77;;;;;;;2.78;100.00;100871.13;5071424;28;20432;-86
2022/11/19 06:19:21;;;;;;;31.45;15.68;;;;;;;2.81;100.00;100876.16;5073166;28;20079;-85
2022/11/19 06:21:47;;;;;;;30.65;16.23;;;;;;;2.78;100.00;100887.22;5022683;28;20098;-86
2022/11/19 06:24:13;;;;;;;32.20;16.65;;;;;;;2.75;100.00;100884.88;5071291;28;20495;-84
2022/11/19 06:26:39;;;;;;;31.33;17.08;;;;;;;2.74;100.00;100888.53;5073391;28;20032;-85
2022/11/19 06:29:05;;;;;;;30.20;16.60;;;;;;;2.72;100.00;100896.75;5075431;28;20048;-84
2022/11/19 06:31:31;;;;;;;30.27;15.90;;;;;;;2.70;100.00;100901.44;5058403;28;20377;-84
2022/11/19 06:33:57;;;;;;;32.97;16.98;;;;;;;2.66;100.00;100897.38;5075353;28;20087;-84
2022/11/19 06:36:22;;;;;;;34.80;17.40;;;;;;;2.61;100.00;100908.59;5075476;28;20036;-84
2022/11/19 06:38:48;;;;;;;32.15;17.02;;;;;;;2.63;100.00;100911.13;5075087;28;20032;-84
2022/11/19 06:41:14;;;;;;;33.33;17.97;;;;;;;2.65;100.00;100914.47;5074894;28;20033;-85
2022/11/19 06:43:39;;;;;;;31.27;16.95;;;;;;;2.60;100.00;100919.47;5076695;28;20040;-85
2022/11/19 06:46:05;;;;;;;34.33;18.50;;;;;;;2.60;100.00;100916.81;5076212;28;20085;-84
2022/11/19 06:48:33;;;;;;;32.90;18.95;;;;;;;2.56;100.00;100915.44;5075243;28;20040;-84
2022/11/19 06:51:00;;;;;;;35.45;18.75;;;;;;;2.46;100.00;100910.19;5074762;28;20040;-85
2022/11/19 06:53:26;;;;;;;34.42;18.20;;;;;;;2.45;100.00;100906.69;5074960;28;20068;-84
2022/11/19 06:56:03;;;;;;;34.70;18.20;;;;;;;2.46;100.00;100919.06;5057552;28;20064;-85
2022/11/19 06:58:29;;;;;;;36.92;18.92;;;;;;;2.43;100.00;100922.06;5074872;28;20037;-84
2022/11/19 07:00:55;;;;;;;36.22;18.33;;;;;;;2.41;100.00;100920.56;5076014;28;20043;-84
2022/11/19 07:03:21;;;;;;;35.90;18.50;;;;;;;2.40;100.00;100926.91;5075706;28;20032;-84
2022/11/19 07:05:48;;;;;;;34.65;17.92;;;;;;;2.42;100.00;100930.25;5076144;28;20094;-85
2022/11/19 07:08:14;;;;;;;37.08;18.00;;;;;;;2.39;100.00;100933.25;5075075;28;20064;-84
2022/11/19 07:10:39;;;;;;;33.53;17.80;;;;;;;2.38;100.00;100936.94;5058077;28;20425;-83
2022/11/19 07:13:05;;;;;;;42.20;18.40;;;;;;;2.37;100.00;100944.13;5041289;28;20070;-84
2022/11/19 07:15:39;;;;;;;38.45;19.13;;;;;;;2.35;100.00;100947.97;5074285;28;20401;-84
2022/11/19 07:18:05;;;;;;;39.90;18.92;;;;;;;2.34;100.00;100944.44;5075560;28;20040;-84
2022/11/19 07:20:30;;;;;;;41.15;19.27;;;;;;;2.36;100.00;100941.59;5074071;28;20182;-84
2022/11/19 07:22:56;;;;;;;40.67;18.87;;;;;;;2.36;100.00;100946.97;5058358;28;20029;-84
2022/11/19 07:25:21;;;;;;;39.00;19.48;;;;;;;2.37;100.00;100959.38;5074684;28;20435;-84
2022/11/19 07:27:47;;;;;;;40.33;19.93;;;;;;;2.31;100.00;100954.66;5075229;28;20425;-84
2022/11/19 07:30:13;;;;;;;40.97;18.20;;;;;;;2.31;100.00;100949.28;5074350;28;20047;-84
2022/11/19 07:32:40;;;;;;;41.38;19.55;;;;;;;2.32;100.00;100962.53;5073729;28;20083;-84
2022/11/19 07:35:08;;;;;;;39.50;18.13;;;;;;;2.34;100.00;100962.38;5075382;28;20060;-84
2022/11/19 07:37:33;;;;;;;39.90;18.98;;;;;;;2.28;100.00;100963.84;5056097;28;20484;-84
2022/11/19 07:39:58;;;;;;;37.43;18.63;;;;;;;2.30;100.00;100969.03;5075135;28;20143;-83
2022/11/19 07:45:10;;;;;;;39.80;19.35;;;;;;;2.26;100.00;100977.38;5075739;28;20046;-83
2022/11/19 07:47:35;;;;;;;39.83;18.25;;;;;;;2.28;100.00;100983.41;5074160;28;20040;-83
2022/11/19 07:50:01;;;;;;;38.97;18.83;;;;;;;2.30;100.00;100982.41;5057791;28;20036;-83
2022/11/19 07:52:26;;;;;;;40.60;19.23;;;;;;;2.31;100.00;100990.28;5056900;28;20473;-84
2022/11/19 07:54:52;;;;;;;42.13;18.23;;;;;;;2.34;100.00;100989.13;5074159;28;20385;-84
2022/11/19 07:57:17;;;;;;;48.65;20.15;;;;;;;2.39;100.00;100989.50;5039810;28;20132;-84
2022/11/19 07:59:43;;;;;;;40.80;18.08;;;;;;;2.40;100.00;100988.50;5056926;28;20060;-83
2022/11/19 08:02:12;;;;;;;40.27;19.17;;;;;;;2.39;100.00;100986.81;5039746;28;20127;-83
2022/11/19 08:04:40;;;;;;;40.65;19.60;;;;;;;2.42;100.00;100984.69;5073306;28;20115;-83
2022/11/19 08:07:06;;;;;;;38.33;18.70;;;;;;;2.38;100.00;100991.34;5073222;28;20500;-84
2022/11/19 08:09:32;;;;;;;42.90;18.33;;;;;;;2.43;100.00;100998.91;5056505;28;20075;-84
2022/11/19 08:11:57;;;;;;;43.65;19.20;;;;;;;2.45;100.00;100991.53;5072828;28;20040;-83
2022/11/19 08:14:23;;;;;;;39.03;18.17;;;;;;;2.50;100.00;101001.78;5073486;28;20039;-83
2022/11/19 08:19:32;;;;;;;37.13;18.20;;;;;;;2.58;100.00;100999.16;5074684;28;20098;-83
2022/11/19 08:21:58;;;;;;;38.87;18.87;;;;;;;2.60;100.00;100999.84;5056295;28;20041;-84
2022/11/19 08:24:23;;;;;;;38.13;18.37;;;;;;;2.66;100.00;101003.69;5072802;28;20036;-85
2022/11/19 08:26:49;;;;;;;38.20;17.92;;;;;;;2.66;100.00;101001.03;5072715;28;20074;-84
2022/11/19 08:29:17;;;;;;;41.28;19.45;;;;;;;2.68;100.00;101005.22;5072775;28;20123;-82
2022/11/19 08:31:45;;;;;;;35.90;17.75;;;;;;;2.74;100.00;101014.47;5073183;28;20060;-82
2022/11/19 08:34:12;;;;;;;39.65;18.52;;;;;;;2.76;100.00;101013.31;5074086;28;20526;-82
2022/11/19 08:36:38;;;;;;;36.22;18.65;;;;;;;2.78;100.00;101013.16;5072713;28;20500;-82
2022/11/19 08:39:05;;;;;;;40.35;18.77;;;;;;;2.81;99.62;101010.16;5059617;28;20086;-84
2022/11/19 08:44:16;;;;;;;43.50;19.27;;;;;;;2.98;100.00;101008.38;5094564;28;20114;-85
2022/11/19 08:46:41;;;;;;;37.75;18.77;;;;;;;3.06;98.66;101015.63;5094002;28;20058;-85
2022/11/19 08:49:07;;;;;;;34.05;17.75;;;;;;;3.06;97.23;101020.97;5075885;28;20476;-85
2022/11/19 08:51:33;;;;;;;37.40;17.37;;;;;;;3.02;98.07;101014.25;5094311;28;20476;-84
2022/11/19 08:53:59;;;;;;;39.28;18.48;;;;;;;3.04;98.14;101025.66;5094285;28;20067;-85
2022/11/19 08:56:27;;;;;;;39.23;18.00;;;;;;;3.03;97.40;101032.88;5059373;28;20071;-84
2022/11/19 08:58:53;;;;;;;36.92;17.90;;;;;;;3.05;97.65;101025.50;5075947;28;20043;-84
2022/11/19 09:01:22;;;;;;;32.85;17.08;;;;;;;3.06;96.31;101032.53;5075980;28;20113;-87
2022/11/19 09:03:48;;;;;;;36.53;18.38;;;;;;;3.05;96.59;101030.03;5075911;28;20399;-84
2022/11/19 09:06:16;;;;;;;36.90;18.10;;;;;;;3.07;96.85;101034.22;5075427;28;20032;-85
2022/11/19 09:08:42;;;;;;;47.08;17.92;;;;;;;3.09;96.52;101031.38;5075692;28;20040;-84
2022/11/19 09:11:22;;;;;;;38.70;18.17;;;;;;;3.15;96.98;101036.91;5059696;28;20042;-85
2022/11/19 09:13:47;;;;;;;38.22;18.08;;;;;;;3.23;97.10;101037.94;5093766;28;20036;-86
2022/11/19 09:16:13;;;;;;;37.63;17.63;;;;;;;3.27;95.68;101044.69;5075555;28;20400;-85
2022/11/19 09:18:40;;;;;;;37.75;18.17;;;;;;;3.22;95.17;101044.31;5075520;28;20044;-85
2022/11/19 09:21:11;;;;;;;37.53;18.05;;;;;;;3.16;95.04;101038.63;5076162;28;20072;-85
2022/11/19 09:23:38;;;;;;;37.47;17.70;;;;;;;3.19;95.56;101050.00;5076410;28;20050;-85
2022/11/19 09:26:11;;;;;;;38.47;18.23;;;;;;;3.22;95.32;101047.00;5093326;28;20040;-85
2022/11/19 09:28:37;;;;;;;38.97;17.90;;;;;;;3.26;96.12;101051.03;5093681;28;20032;-86
2022/11/19 09:31:09;;;;;;;36.00;17.98;;;;;;;3.29;94.14;101056.06;5075493;28;20036;-85
2022/11/19 09:33:37;;;;;;;31.47;16.57;;;;;;;3.22;93.77;101057.72;5075686;28;20068;-85
2022/11/19 09:36:03;;;;;;;38.53;17.67;;;;;;;3.16;93.55;101056.56;5075700;28;20123;-85
2022/11/19 09:38:30;;;;;;;36.75;16.63;;;;;;;3.18;93.74;101059.91;5075093;28;20043;-85
2022/11/19 09:40:59;;;;;;;39.45;18.30;;;;;;;3.19;93.25;101066.09;5058425;28;20052;-86
2022/11/19 09:43:45;;;;;;;33.78;15.85;;;;;;;3.19;93.65;101066.94;5075320;28;20138;-85
2022/11/19 09:46:31;;;;;;;32.20;16.27;;;;;;;3.25;94.31;101065.44;5075596;28;20042;-85
2022/11/19 09:49:02;;;;;;;35.13;16.05;;;;;;;3.24;94.21;101077.19;5076120;28;20090;-86
2022/11/19 09:51:32;;;;;;;36.00;17.02;;;;;;;3.21;93.28;101082.88;5075352;28;20051;-85
2022/11/19 09:54:07;;;;;;;35.33;16.17;;;;;;;3.21;93.31;101081.03;5075294;28;20090;-85
2022/11/19 09:57:01;;;;;;;35.47;15.85;;;;;;;3.20;92.97;101099.97;5075959;28;20036;-86
2022/11/19 09:59:32;;;;;;;43.00;16.17;;;;;;;3.18;93.12;101085.88;5076454;28;20089;-86
2022/11/19 10:01:57;;;;;;;32.85;16.13;;;;;;;3.15;92.60;101092.41;5095640;28;20039;-86
2022/11/19 10:04:26;;;;;;;31.42;15.63;;;;;;;3.14;91.58;101094.25;5062595;28;20044;-83
2022/11/19 10:07:05;;;;;;;37.40;16.67;;;;;;;3.13;93.00;101094.38;5080268;28;20048;-88
2022/11/19 10:09:44;;;;;;;34.67;16.00;;;;;;;3.12;93.06;101092.72;5079673;28;20047;-85
2022/11/19 10:12:31;;;;;;;33.72;16.40;;;;;;;3.19;92.70;101095.59;5079424;28;20047;-84
2022/11/19 10:15:23;;;;;;;32.65;16.20;;;;;;;3.19;91.94;101099.13;5097020;28;20035;-84
2022/11/19 10:18:06;;;;;;;36.55;16.08;;;;;;;3.15;92.30;101098.59;5061158;28;20046;-84
2022/11/19 10:20:59;;;;;;;37.92;16.92;;;;;;;3.18;93.32;101102.81;5097040;28;20039;-84
2022/11/19 10:23:48;;;;;;;35.80;15.27;;;;;;;3.21;92.61;101105.16;5078923;28;20044;-84
2022/11/19 10:26:22;;;;;;;36.10;15.38;;;;;;;3.16;91.57;101104.81;5096681;28;20032;-84
2022/11/19 10:28:57;;;;;;;37.53;16.77;;;;;;;3.12;92.04;101108.81;5097570;28;20040;-85
2022/11/19 10:31:34;;;;;;;33.28;15.82;;;;;;;3.10;91.25;101113.47;5079008;28;20036;-84
2022/11/19 10:34:03;;;;;;;33.95;15.70;;;;;;;3.02;90.33;101111.59;5079312;28;20036;-85
2022/11/19 10:36:38;;;;;;;29.23;14.27;;;;;;;3.01;90.19;101114.44;5078647;28;20040;-85
2022/11/19 10:39:22;;;;;;;33.72;16.17;;;;;;;3.01;91.22;101117.94;5075863;28;20132;-85
2022/11/19 10:42:18;;;;;;;32.67;15.65;;;;;;;3.07;91.80;101117.34;5076541;28;20040;-85
2022/11/19 10:44:56;;;;;;;33.67;15.25;;;;;;;3.12;91.63;101115.00;5074468;28;20507;-85
2022/11/19 10:47:31;;;;;;;30.27;15.40;;;;;;;3.16;90.59;101107.50;5075894;28;20068;-84
2022/11/19 10:49:56;;;;;;;32.58;14.82;;;;;;;3.16;90.17;101107.50;5075211;28;20044;-85
2022/11/19 10:52:29;;;;;;;29.13;14.70;;;;;;;3.19;89.80;101106.31;5074928;28;20477;-84
2022/11/19 10:55:03;;;;;;;26.23;14.00;;;;;;;3.15;89.13;101113.84;5075414;28;20373;-85
2022/11/19 10:57:31;;;;;;;30.58;14.82;;;;;;;3.16;88.61;101118.22;5074269;28;20052;-84
2022/11/19 11:00:00;;;;;;;30.20;14.77;;;;;;;3.13;89.16;101114.00;5075050;28;20037;-84
2022/11/19 11:02:45;;;;;;;30.63;14.45;;;;;;;3.18;89.92;101108.16;5074900;28;20043;-84
2022/11/19 11:05:14;;;;;;;31.50;14.47;;;;;;;3.22;88.46;101112.22;5074829;28;20530;-84
2022/11/19 11:07:49;;;;;;;28.00;14.40;;;;;;;3.24;88.14;101110.19;5074554;28;20029;-84
2022/11/19 11:10:28;;;;;;;31.02;15.23;;;;;;;3.23;87.83;101113.88;5074261;28;20050;-84
2022/11/19 11:15:49;;;;;;;30.67;13.57;;;;;;;3.25;87.47;101119.94;5075872;28;20043;-84
2022/11/19 11:18:16;;;;;;;34.17;14.77;;;;;;;3.27;87.14;101109.03;5073998;28;20546;-84
2022/11/19 11:20:48;;;;;;;28.85;13.70;;;;;;;3.31;87.52;101113.91;5074096;28;20071;-84
2022/11/19 11:23:31;;;;;;;28.85;13.57;;;;;;;3.38;88.04;101108.75;5074015;28;20040;-84
2022/11/19 11:26:07;;;;;;;31.27;14.70;;;;;;;3.42;87.41;101118.16;5074243;28;20131;-84
2022/11/19 11:28:35;;;;;;;30.75;14.13;;;;;;;3.46;86.46;101110.63;5074118;28;20032;-84
2022/11/19 11:31:05;;;;;;;29.30;13.90;;;;;;;3.42;85.75;101101.22;5074049;28;20040;-84
2022/11/19 11:33:40;;;;;;;28.88;13.93;;;;;;;3.48;86.66;101103.25;5074373;28;20055;-84
2022/11/19 11:36:19;;;;;;;26.75;13.02;;;;;;;3.56;87.52;101099.75;5074895;28;20032;-84
2022/11/19 11:38:58;;;;;;;26.38;13.00;;;;;;;3.57;86.75;101094.22;5074544;28;20036;-84
2022/11/19 11:41:33;;;;;;;25.73;13.18;;;;;;;3.50;85.89;101090.53;5073771;28;20052;-84
2022/11/19 11:44:23;;;;;;;24.23;13.03;;;;;;;3.48;86.48;101100.56;5078194;28;20036;-85
2022/11/19 11:46:59;;;;;;;23.20;12.23;;;;;;;3.46;85.56;101094.53;5077442;28;20100;-86
2022/11/19 11:49:32;;;;;;;23.35;12.85;;;;;;;3.54;86.01;101097.22;5077517;28;20040;-86
2022/11/19 11:52:36;;;;;;;22.65;12.68;;;;;;;3.63;85.69;101098.94;5077750;28;20586;-86
2022/11/19 11:55:12;;;;;;;25.50;11.50;;;;;;;3.66;84.86;101092.41;5077068;28;20039;-86
2022/11/19 11:57:56;;;;;;;20.83;11.40;;;;;;;3.68;83.97;101098.47;5076913;28;20159;-86
2022/11/19 12:00:36;;;;;;;21.23;11.57;;;;;;;3.73;83.86;101098.78;5077164;28;20126;-86
2022/11/19 12:03:05;;;;;;;25.67;11.13;;;;;;;3.80;83.23;101098.97;5095195;28;20043;-86
2022/11/19 12:05:43;;;;;;;23.33;10.90;;;;;;;3.90;83.20;101096.13;5076894;28;20468;-86
2022/11/19 12:08:22;;;;;;;20.40;10.73;;;;;;;3.97;83.26;101091.78;5076582;28;20127;-87
2022/11/19 12:11:00;;;;;;;19.70;10.90;;;;;;;3.93;82.33;101099.34;5095142;28;20144;-86
2022/11/19 12:13:31;;;;;;;18.70;10.85;;;;;;;3.93;81.39;101103.88;5077581;28;20089;-86
2022/11/19 12:16:15;;;;;;;20.75;10.50;;;;;;;3.85;83.03;101093.94;5076866;28;20036;-87
2022/11/19 12:18:43;;;;;;;20.58;10.65;;;;;;;3.84;82.62;101101.16;5076489;28;20034;-86
2022/11/19 12:21:11;;;;;;;20.85;10.93;;;;;;;3.81;82.30;101098.81;5076789;28;20050;-86
2022/11/19 12:24:03;;;;;;;19.37;10.73;;;;;;;3.79;83.66;101098.13;5075855;28;20032;-86
2022/11/19 12:26:44;;;;;;;17.50;10.00;;;;;;;3.72;81.61;101101.63;5076704;28;20032;-86
2022/11/19 12:29:40;;;;;;;20.00;10.52;;;;;;;3.69;82.37;101111.72;5094539;28;20060;-87
2022/11/19 12:32:11;;;;;;;18.35;9.88;;;;;;;3.60;82.32;101099.28;5076721;28;20032;-85
2022/11/19 12:34:48;;;;;;;17.15;9.90;;;;;;;3.58;82.15;101103.13;5076085;28;20032;-86
2022/11/19 12:37:52;;;;;;;18.57;9.80;;;;;;;3.64;83.00;101105.16;5076178;28;20139;-86
2022/11/19 12:40:32;;;;;;;21.48;10.40;;;;;;;3.48;82.57;101106.78;5072522;28;20056;-86
2022/11/19 12:43:33;;;;;;;17.30;9.80;;;;;;;3.40;83.75;101114.78;5072227;28;20416;-87
2022/11/19 12:46:07;;;;;;;17.88;10.30;;;;;;;3.27;83.75;101112.56;5070114;28;20041;-86
2022/11/19 12:48:42;;;;;;;15.85;9.85;;;;;;;3.25;84.21;101119.06;5073877;28;20481;-86
2022/11/19 12:51:25;;;;;;;17.60;9.60;;;;;;;3.26;85.06;101113.56;5072530;28;20138;-87
2022/11/19 12:54:13;;;;;;;17.48;9.98;;;;;;;3.28;84.43;101114.25;5073541;28;20439;-86
2022/11/19 12:56:57;;;;;;;18.90;10.48;;;;;;;3.23;83.66;101105.81;5072423;28;20497;-86
2022/11/19 12:59:56;;;;;;;18.85;10.15;;;;;;;3.22;84.12;101109.53;5072713;28;20048;-86
2022/11/19 13:02:28;;;;;;;22.08;10.60;;;;;;;3.18;83.85;101097.44;5072042;28;20040;-87
2022/11/19 13:05:00;;;;;;;16.43;9.27;;;;;;;3.23;83.46;101105.00;5072792;28;20041;-87
2022/11/19 13:07:42;;;;;;;20.73;10.15;;;;;;;3.30;84.11;101096.13;5071972;28;20106;-86
2022/11/19 13:10:17;;;;;;;21.55;10.50;;;;;;;3.41;84.14;101105.75;5072938;28;20063;-86
2022/11/19 13:12:48;;;;;;;15.80;9.52;;;;;;;3.43;82.60;101102.91;5073527;28;20480;-86
2022/11/19 13:15:27;;;;;;;17.73;9.70;;;;;;;3.45;82.86;101103.56;5073523;28;20361;-86
2022/11/19 13:17:55;;;;;;;15.97;8.83;;;;;;;3.50;82.88;101099.41;5074515;28;20036;-86
2022/11/19 13:20:24;;;;;;;17.88;9.75;;;;;;;3.57;82.71;101104.94;5072914;28;20036;-86
2022/11/19 13:22:52;;;;;;;17.42;10.07;;;;;;;3.61;82.32;101100.13;5073537;28;20043;-87
2022/11/19 13:25:23;;;;;;;18.83;9.95;;;;;;;3.61;82.80;101092.88;5072401;28;20052;-86
2022/11/19 13:27:51;;;;;;;20.23;9.45;;;;;;;3.65;82.53;101104.16;5072357;28;20040;-86
2022/11/19 13:30:25;;;;;;;18.57;10.57;;;;;;;3.61;81.77;101102.78;5073535;28;20044;-86
2022/11/19 13:33:21;;;;;;;18.48;9.73;;;;;;;3.50;81.99;101104.78;5073816;28;20072;-86
2022/11/19 13:36:05;;;;;;;19.40;9.63;;;;;;;3.47;82.81;101099.75;5073295;28;20137;-87
2022/11/19 13:39:02;;;;;;;17.50;9.70;;;;;;;3.46;82.82;101098.03;5072351;28;20036;-86
2022/11/19 13:44:37;;;;;;;17.92;9.68;;;;;;;3.47;82.76;101099.75;5071852;28;20048;-86
2022/11/19 13:44:39;;;;;;;19.27;10.53;;;;;;;3.51;82.31;101109.16;5072851;28;20400;-87
2022/11/19 13:47:14;;;;;;;20.60;10.25;;;;;;;3.50;81.82;101106.63;5072599;28;20033;-86
2022/11/19 13:49:49;;;;;;;17.73;10.02;;;;;;;3.47;82.31;101107.78;5072109;28;20102;-87
2022/11/19 13:52:28;;;;;;;18.25;9.82;;;;;;;3.49;82.18;101104.94;5071858;28;20037;-87
2022/11/19 13:54:57;;;;;;;16.77;9.63;;;;;;;3.51;82.46;101106.47;5073439;28;20469;-87
2022/11/19 13:57:44;;;;;;;16.37;9.63;;;;;;;3.55;82.91;101098.91;5071014;28;20044;-85
2022/11/19 14:00:23;;;;;;;21.52;10.05;;;;;;;3.58;82.70;101095.06;5073315;28;20037;-85
2022/11/19 14:03:13;;;;;;;15.57;9.02;;;;;;;3.55;82.17;101104.28;5071479;28;20055;-84
2022/11/19 14:05:55;;;;;;;20.48;9.82;;;;;;;3.55;82.35;101106.13;5072781;28;20056;-84
2022/11/19 14:09:10;;;;;;;18.52;9.25;;;;;;;3.51;82.36;101111.81;5072697;28;20032;-84
2022/11/19 14:12:00;;;;;;;18.33;8.80;;;;;;;3.50;82.32;101107.47;5054094;28;20353;-85